sensor_id;sensor_type;location;lat;lon;timestamp;pressure;altitude;pressure_sealevel;temperature;humidity
19236;BME280;9752;54.270;12.470;2023-05-29T00:00:55;103225.16;;;7.25;100.00
19236;BME280;9752;54.270;12.470;2023-05-29T00:05:57;103243.56;;;7.28;100.00
19236;BME280;9752;54.270;12.470;2023-05-29T00:11:00;103258.09;;;7.58;100.00
19236;BME280;9752;54.270;12.470;2023-05-29T00:16:02;103265.63;;;7.40;100.00
19236;BME280;9752;54.270;12.470;2023-05-29T00:21:05;103264.63;;;7.24;100.00
19236;BME280;9752;54.270;12.470;2023-05-29T00:26:09;103275.75;;;7.16;100.00
19236;BME280;9752;54.270;12.470;2023-05-29T00:31:12;103297.53;;;7.11;100.00
19236;BME280;9752;54.270;12.470;2023-05-29T00:36:14;103305.06;;;7.16;100.00
19236;BME280;9752;54.270;12.470;2023-05-29T00:41:18;103325.53;;;7.15;100.00
19236;BME280;9752;54.270;12.470;2023-05-29T00:46:20;103334.75;;;7.13;100.00
19236;BME280;9752;54.270;12.470;2023-05-29T00:51:22;103342.50;;;7.13;100.00
19236;BME280;9752;54.270;12.470;2023-05-29T00:56:25;103358.34;;;7.16;100.00
19236;BME280;9752;54.270;12.470;2023-05-29T01:01:27;103382.59;;;7.32;100.00
19236;BME280;9752;54.270;12.470;2023-05-29T01:06:31;103405.69;;;7.61;100.00
19236;BME280;9752;54.270;12.470;2023-05-29T01:17:00;103462.78;;;8.01;100.00
19236;BME280;9752;54.270;12.470;2023-05-29T01:22:11;103482.69;;;8.33;100.00
19236;BME280;9752;54.270;12.470;2023-05-29T01:27:18;103497.22;;;8.47;100.00
19236;BME280;9752;54.270;12.470;2023-05-29T01:32:21;103525.69;;;8.63;100.00
19236;BME280;9752;54.270;12.470;2023-05-29T01:37:23;103540.81;;;8.67;100.00
19236;BME280;9752;54.270;12.470;2023-05-29T01:42:26;103560.00;;;8.69;100.00
19236;BME280;9752;54.270;12.470;2023-05-29T01:47:29;103596.13;;;9.06;100.00
19236;BME280;9752;54.270;12.470;2023-05-29T01:52:34;103607.31;;;9.14;100.00
19236;BME280;9752;54.270;12.470;2023-05-29T01:57:38;103621.91;;;9.36;100.00
19236;BME280;9752;54.270;12.470;2023-05-29T02:02:40;103597.25;;;9.40;100.00
19236;BME280;9752;54.270;12.470;2023-05-29T02:07:42;103569.53;;;9.39;100.00
19236;BME280;9752;54.270;12.470;2023-05-29T02:12:46;103536.25;;;9.51;100.00
19236;BME280;9752;54.270;12.470;2023-05-29T02:17:48;103493.13;;;9.51;100.00
19236;BME280;9752;54.270;12.470;2023-05-29T02:22:49;103438.88;;;9.53;100.00
19236;BME280;9752;54.270;12.470;2023-05-29T02:27:52;103394.97;;;9.30;100.00
19236;BME280;9752;54.270;12.470;2023-05-29T02:32:54;103348.06;;;9.11;100.00
19236;BME280;9752;54.270;12.470;2023-05-29T02:37:56;103320.16;;;9.08;100.00
19236;BME280;9752;54.270;12.470;2023-05-29T02:42:59;103295.41;;;8.94;100.00
19236;BME280;9752;54.270;12.470;2023-05-29T02:48:01;103276.06;;;8.75;100.00
19236;BME280;9752;54.270;12.470;2023-05-29T02:53:04;103264.22;;;8.77;100.00
19236;BME280;9752;54.270;12.470;2023-05-29T02:58:07;103249.22;;;8.66;100.00
19236;BME280;9752;54.270;12.470;2023-05-29T03:03:09;103241.69;;;8.44;100.00
19236;BME280;9752;54.270;12.470;2023-05-29T03:08:13;103224.75;;;8.39;100.00
19236;BME280;9752;54.270;12.470;2023-05-29T03:13:18;103229.41;;;8.34;100.00
19236;BME280;9752;54.270;12.470;2023-05-29T03:18:28;103216.91;;;8.30;100.00
19236;BME280;9752;54.270;12.470;2023-05-29T03:23:30;103205.66;;;8.30;100.00
19236;BME280;9752;54.270;12.470;2023-05-29T03:28:34;103224.19;;;8.42;100.00
19236;BME280;9752;54.270;12.470;2023-05-29T03:33:39;103221.09;;;8.53;100.00
19236;BME280;9752;54.270;12.470;2023-05-29T03:38:49;103214.94;;;8.44;100.00
19236;BME280;9752;54.270;12.470;2023-05-29T03:43:54;103206.09;;;8.26;100.00
19236;BME280;9752;54.270;12.470;2023-05-29T03:48:58;103207.06;;;8.19;100.00
19236;BME280;9752;54.270;12.470;2023-05-29T03:54:00;103209.09;;;8.21;100.00
19236;BME280;9752;54.270;12.470;2023-05-29T03:59:03;103222.50;;;8.26;100.00
19236;BME280;9752;54.270;12.470;2023-05-29T04:04:07;103245.72;;;8.65;100.00
19236;BME280;9752;54.270;12.470;2023-05-29T04:09:09;103265.19;;;8.86;100.00
19236;BME280;9752;54.270;12.470;2023-05-29T04:14:12;103279.78;;;9.26;100.00
19236;BME280;9752;54.270;12.470;2023-05-29T04:19:14;103276.94;;;9.41;100.00
19236;BME280;9752;54.270;12.470;2023-05-29T04:24:16;103259.50;;;9.55;100.00
19236;BME280;9752;54.270;12.470;2023-05-29T04:29:19;103239.44;;;9.70;100.00
19236;BME280;9752;54.270;12.470;2023-05-29T04:34:21;103232.81;;;9.99;100.00
19236;BME280;9752;54.270;12.470;2023-05-29T04:39:23;103198.53;;;10.27;100.00
19236;BME280;9752;54.270;12.470;2023-05-29T04:44:27;103137.81;;;10.51;100.00
19236;BME280;9752;54.270;12.470;2023-05-29T04:49:29;103084.81;;;10.67;100.00
19236;BME280;9752;54.270;12.470;2023-05-29T04:54:32;103016.66;;;10.78;100.00
19236;BME280;9752;54.270;12.470;2023-05-29T04:59:35;102958.25;;;10.92;100.00
19236;BME280;9752;54.270;12.470;2023-05-29T05:04:37;102886.00;;;10.97;100.00
19236;BME280;9752;54.270;12.470;2023-05-29T05:09:39;102826.59;;;11.10;100.00
19236;BME280;9752;54.270;12.470;2023-05-29T05:14:45;102734.03;;;11.21;100.00
19236;BME280;9752;54.270;12.470;2023-05-29T05:19:47;102689.44;;;11.45;100.00
19236;BME280;9752;54.270;12.470;2023-05-29T05:24:50;102646.97;;;11.55;100.00
19236;BME280;9752;54.270;12.470;2023-05-29T05:29:54;102631.38;;;11.65;100.00
19236;BME280;9752;54.270;12.470;2023-05-29T05:34:57;102601.50;;;11.81;100.00
19236;BME280;9752;54.270;12.470;2023-05-29T05:39:59;102568.88;;;12.05;100.00
19236;BME280;9752;54.270;12.470;2023-05-29T05:45:04;102530.88;;;11.97;100.00
19236;BME280;9752;54.270;12.470;2023-05-29T05:50:07;102514.69;;;12.21;100.00
19236;BME280;9752;54.270;12.470;2023-05-29T05:55:09;102493.91;;;12.43;100.00
19236;BME280;9752;54.270;12.470;2023-05-29T06:00:15;102485.31;;;12.44;100.00
19236;BME280;9752;54.270;12.470;2023-05-29T06:05:19;102476.06;;;12.70;100.00
19236;BME280;9752;54.270;12.470;2023-05-29T06:10:21;102440.34;;;12.57;100.00
19236;BME280;9752;54.270;12.470;2023-05-29T06:15:24;102440.28;;;12.45;100.00
19236;BME280;9752;54.270;12.470;2023-05-29T06:20:26;102436.38;;;12.50;100.00
19236;BME280;9752;54.270;12.470;2023-05-29T06:25:28;102439.44;;;12.57;100.00
19236;BME280;9752;54.270;12.470;2023-05-29T06:30:35;102435.44;;;12.72;100.00
19236;BME280;9752;54.270;12.470;2023-05-29T06:35:40;102436.88;;;13.02;100.00
19236;BME280;9752;54.270;12.470;2023-05-29T06:40:42;102446.09;;;12.75;100.00
19236;BME280;9752;54.270;12.470;2023-05-29T06:45:46;102440.31;;;13.01;100.00
19236;BME280;9752;54.270;12.470;2023-05-29T06:50:48;102440.34;;;12.79;100.00
19236;BME280;9752;54.270;12.470;2023-05-29T06:56:08;102434.44;;;13.16;100.00
19236;BME280;9752;54.270;12.470;2023-05-29T07:01:12;102427.16;;;13.57;100.00
19236;BME280;9752;54.270;12.470;2023-05-29T07:06:21;102439.50;;;13.48;100.00
19236;BME280;9752;54.270;12.470;2023-05-29T07:11:23;102445.72;;;13.38;100.00
19236;BME280;9752;54.270;12.470;2023-05-29T07:16:27;102447.47;;;13.16;100.00
19236;BME280;9752;54.270;12.470;2023-05-29T07:21:34;102459.47;;;13.25;100.00
19236;BME280;9752;54.270;12.470;2023-05-29T07:26:37;102462.97;;;13.48;100.00
19236;BME280;9752;54.270;12.470;2023-05-29T07:31:40;102464.91;;;13.74;100.00
19236;BME280;9752;54.270;12.470;2023-05-29T07:36:56;102460.91;;;13.44;100.00
19236;BME280;9752;54.270;12.470;2023-05-29T07:41:58;102454.41;;;14.33;100.00
19236;BME280;9752;54.270;12.470;2023-05-29T07:47:04;102465.34;;;13.45;100.00
19236;BME280;9752;54.270;12.470;2023-05-29T07:52:14;102466.81;;;13.65;100.00
19236;BME280;9752;54.270;12.470;2023-05-29T07:57:16;102465.53;;;14.19;100.00
19236;BME280;9752;54.270;12.470;2023-05-29T08:02:20;102476.56;;;13.67;100.00
19236;BME280;9752;54.270;12.470;2023-05-29T08:07:33;102472.38;;;13.46;100.00
19236;BME280;9752;54.270;12.470;2023-05-29T08:12:35;102480.06;;;13.56;100.00
19236;BME280;9752;54.270;12.470;2023-05-29T08:17:38;102478.50;;;13.58;100.00
19236;BME280;9752;54.270;12.470;2023-05-29T08:22:40;102472.72;;;13.98;100.00
19236;BME280;9752;54.270;12.470;2023-05-29T08:27:41;102472.72;;;13.62;100.00
19236;BME280;9752;54.270;12.470;2023-05-29T08:32:44;102463.53;;;13.44;100.00
19236;BME280;9752;54.270;12.470;2023-05-29T08:37:46;102468.31;;;13.27;100.00
19236;BME280;9752;54.270;12.470;2023-05-29T08:42:56;102472.47;;;13.02;100.00
19236;BME280;9752;54.270;12.470;2023-05-29T08:48:00;102480.59;;;12.95;100.00
19236;BME280;9752;54.270;12.470;2023-05-29T08:53:03;102482.22;;;13.50;100.00
19236;BME280;9752;54.270;12.470;2023-05-29T08:58:05;102488.38;;;13.74;100.00
19236;BME280;9752;54.270;12.470;2023-05-29T09:03:08;102484.13;;;13.41;100.00
19236;BME280;9752;54.270;12.470;2023-05-29T09:08:10;102492.16;;;12.98;100.00
19236;BME280;9752;54.270;12.470;2023-05-29T09:13:13;102488.47;;;12.84;100.00
19236;BME280;9752;54.270;12.470;2023-05-29T09:18:17;102490.38;;;13.09;100.00
19236;BME280;9752;54.270;12.470;2023-05-29T09:23:19;102498.09;;;13.19;100.00
19236;BME280;9752;54.270;12.470;2023-05-29T09:28:21;102486.97;;;13.32;100.00
19236;BME280;9752;54.270;12.470;2023-05-29T09:33:25;102507.28;;;13.48;100.00
19236;BME280;9752;54.270;12.470;2023-05-29T09:38:29;102494.50;;;13.63;100.00
19236;BME280;9752;54.270;12.470;2023-05-29T09:43:31;102497.09;;;13.75;100.00
19236;BME280;9752;54.270;12.470;2023-05-29T09:48:35;102493.56;;;13.98;100.00
19236;BME280;9752;54.270;12.470;2023-05-29T09:53:39;102487.94;;;13.80;100.00
19236;BME280;9752;54.270;12.470;2023-05-29T09:58:43;102487.34;;;13.60;100.00
19236;BME280;9752;54.270;12.470;2023-05-29T10:03:48;102489.72;;;13.57;100.00
19236;BME280;9752;54.270;12.470;2023-05-29T10:08:50;102497.00;;;14.09;100.00
19236;BME280;9752;54.270;12.470;2023-05-29T10:13:54;102486.22;;;14.53;100.00
19236;BME280;9752;54.270;12.470;2023-05-29T10:19:00;102483.63;;;14.64;100.00
19236;BME280;9752;54.270;12.470;2023-05-29T10:24:07;102484.31;;;14.62;100.00
19236;BME280;9752;54.270;12.470;2023-05-29T10:29:14;102479.31;;;14.90;100.00
19236;BME280;9752;54.270;12.470;2023-05-29T10:34:26;102483.63;;;14.64;100.00
19236;BME280;9752;54.270;12.470;2023-05-29T10:39:30;102486.75;;;14.84;100.00
19236;BME280;9752;54.270;12.470;2023-05-29T10:44:39;102484.97;;;15.21;100.00
19236;BME280;9752;54.270;12.470;2023-05-29T10:49:50;102479.41;;;15.17;100.00
19236;BME280;9752;54.270;12.470;2023-05-29T10:54:54;102476.44;;;14.99;100.00
19236;BME280;9752;54.270;12.470;2023-05-29T10:59:58;102471.13;;;14.72;100.00
19236;BME280;9752;54.270;12.470;2023-05-29T11:05:17;102472.38;;;15.16;100.00
19236;BME280;9752;54.270;12.470;2023-05-29T11:10:40;102456.75;;;15.42;100.00
19236;BME280;9752;54.270;12.470;2023-05-29T11:15:42;102459.31;;;15.16;100.00
19236;BME280;9752;54.270;12.470;2023-05-29T11:20:50;102468.13;;;14.79;100.00
19236;BME280;9752;54.270;12.470;2023-05-29T11:25:54;102454.34;;;15.07;100.00
19236;BME280;9752;54.270;12.470;2023-05-29T11:30:59;102448.59;;;15.51;100.00
19236;BME280;9752;54.270;12.470;2023-05-29T11:36:08;102451.97;;;15.89;100.00
19236;BME280;9752;54.270;12.470;2023-05-29T11:41:10;102455.06;;;15.70;100.00
19236;BME280;9752;54.270;12.470;2023-05-29T11:46:16;102448.56;;;15.76;100.00
19236;BME280;9752;54.270;12.470;2023-05-29T11:51:20;102453.13;;;15.40;100.00
19236;BME280;9752;54.270;12.470;2023-05-29T11:56:22;102449.84;;;16.10;100.00
19236;BME280;9752;54.270;12.470;2023-05-29T12:01:24;102454.63;;;15.37;100.00
19236;BME280;9752;54.270;12.470;2023-05-29T12:06:35;102457.72;;;15.83;100.00
19236;BME280;9752;54.270;12.470;2023-05-29T12:11:38;102459.44;;;15.83;100.00
19236;BME280;9752;54.270;12.470;2023-05-29T12:16:40;102463.75;;;15.95;100.00
19236;BME280;9752;54.270;12.470;2023-05-29T12:21:44;102467.03;;;16.06;100.00
19236;BME280;9752;54.270;12.470;2023-05-29T12:26:45;102465.31;;;16.62;100.00
19236;BME280;9752;54.270;12.470;2023-05-29T12:31:57;102470.84;;;15.45;100.00
19236;BME280;9752;54.270;12.470;2023-05-29T12:37:05;102465.31;;;16.20;100.00
19236;BME280;9752;54.270;12.470;2023-05-29T12:42:10;102463.28;;;16.29;100.00
19236;BME280;9752;54.270;12.470;2023-05-29T12:47:14;102454.16;;;16.23;100.00
19236;BME280;9752;54.270;12.470;2023-05-29T12:52:20;102452.47;;;16.51;100.00
19236;BME280;9752;54.270;12.470;2023-05-29T12:57:22;102454.41;;;16.40;100.00
19236;BME280;9752;54.270;12.470;2023-05-29T13:02:24;102441.44;;;17.13;100.00
19236;BME280;9752;54.270;12.470;2023-05-29T13:07:27;102438.78;;;16.70;100.00
19236;BME280;9752;54.270;12.470;2023-05-29T13:12:29;102435.34;;;16.85;100.00
19236;BME280;9752;54.270;12.470;2023-05-29T13:17:30;102452.66;;;16.83;100.00
19236;BME280;9752;54.270;12.470;2023-05-29T13:22:33;102446.75;;;16.72;100.00
19236;BME280;9752;54.270;12.470;2023-05-29T13:27:36;102449.09;;;17.10;100.00
19236;BME280;9752;54.270;12.470;2023-05-29T13:32:39;102443.69;;;16.51;100.00
19236;BME280;9752;54.270;12.470;2023-05-29T13:37:42;102439.56;;;16.83;100.00
19236;BME280;9752;54.270;12.470;2023-05-29T13:42:44;102448.06;;;16.65;100.00
19236;BME280;9752;54.270;12.470;2023-05-29T13:47:46;102436.00;;;17.40;100.00
19236;BME280;9752;54.270;12.470;2023-05-29T13:52:49;102427.16;;;16.52;100.00
19236;BME280;9752;54.270;12.470;2023-05-29T13:57:51;102434.31;;;16.83;100.00
19236;BME280;9752;54.270;12.470;2023-05-29T14:02:53;102433.34;;;16.95;100.00
19236;BME280;9752;54.270;12.470;2023-05-29T14:07:56;102422.16;;;17.43;100.00
19236;BME280;9752;54.270;12.470;2023-05-29T14:12:58;102427.25;;;18.01;100.00
19236;BME280;9752;54.270;12.470;2023-05-29T14:17:59;102426.47;;;19.35;100.00
19236;BME280;9752;54.270;12.470;2023-05-29T14:23:04;102426.47;;;18.18;100.00
19236;BME280;9752;54.270;12.470;2023-05-29T14:28:05;102413.69;;;19.24;100.00
19236;BME280;9752;54.270;12.470;2023-05-29T14:33:07;102421.66;;;20.73;100.00
19236;BME280;9752;54.270;12.470;2023-05-29T14:38:11;102417.13;;;21.72;100.00
19236;BME280;9752;54.270;12.470;2023-05-29T14:43:12;102419.44;;;20.82;100.00
19236;BME280;9752;54.270;12.470;2023-05-29T14:48:14;102421.84;;;19.65;100.00
19236;BME280;9752;54.270;12.470;2023-05-29T14:53:18;102410.97;;;20.13;100.00
19236;BME280;9752;54.270;12.470;2023-05-29T14:58:21;102419.53;;;19.71;100.00
19236;BME280;9752;54.270;12.470;2023-05-29T15:03:22;102399.59;;;21.32;100.00
19236;BME280;9752;54.270;12.470;2023-05-29T15:08:29;102409.78;;;20.82;100.00
19236;BME280;9752;54.270;12.470;2023-05-29T15:13:34;102402.25;;;20.14;100.00
19236;BME280;9752;54.270;12.470;2023-05-29T15:18:36;102405.69;;;20.70;100.00
19236;BME280;9752;54.270;12.470;2023-05-29T15:23:39;102400.75;;;20.97;100.00
19236;BME280;9752;54.270;12.470;2023-05-29T15:28:43;102405.34;;;21.87;100.00
19236;BME280;9752;54.270;12.470;2023-05-29T15:33:45;102399.09;;;22.07;100.00
19236;BME280;9752;54.270;12.470;2023-05-29T15:38:48;102398.16;;;22.52;100.00
19236;BME280;9752;54.270;12.470;2023-05-29T15:43:49;102394.50;;;24.04;100.00
19236;BME280;9752;54.270;12.470;2023-05-29T15:48:51;102387.06;;;22.86;100.00
19236;BME280;9752;54.270;12.470;2023-05-29T15:53:54;102384.78;;;22.71;100.00
19236;BME280;9752;54.270;12.470;2023-05-29T15:58:56;102407.06;;;21.21;100.00
19236;BME280;9752;54.270;12.470;2023-05-29T16:03:57;102400.72;;;20.76;100.00
19236;BME280;9752;54.270;12.470;2023-05-29T16:09:00;102392.25;;;21.04;100.00
19236;BME280;9752;54.270;12.470;2023-05-29T16:14:02;102397.53;;;21.04;100.00
19236;BME280;9752;54.270;12.470;2023-05-29T16:19:04;102401.47;;;20.73;100.00
19236;BME280;9752;54.270;12.470;2023-05-29T16:24:07;102401.91;;;19.70;100.00
19236;BME280;9752;54.270;12.470;2023-05-29T16:29:09;102403.47;;;19.30;100.00
19236;BME280;9752;54.270;12.470;2023-05-29T16:34:11;102406.53;;;19.74;100.00
19236;BME280;9752;54.270;12.470;2023-05-29T16:39:14;102394.72;;;20.41;100.00
19236;BME280;9752;54.270;12.470;2023-05-29T16:44:22;102397.94;;;19.60;100.00
19236;BME280;9752;54.270;12.470;2023-05-29T16:49:23;102386.91;;;20.62;100.00
19236;BME280;9752;54.270;12.470;2023-05-29T16:54:27;102368.63;;;23.13;100.00
19236;BME280;9752;54.270;12.470;2023-05-29T16:59:31;102384.38;;;20.84;100.00
19236;BME280;9752;54.270;12.470;2023-05-29T17:04:33;102393.63;;;20.75;100.00
19236;BME280;9752;54.270;12.470;2023-05-29T17:09:37;102380.13;;;20.88;100.00
19236;BME280;9752;54.270;12.470;2023-05-29T17:14:39;102377.09;;;20.59;100.00
19236;BME280;9752;54.270;12.470;2023-05-29T17:19:41;102388.50;;;18.95;100.00
19236;BME280;9752;54.270;12.470;2023-05-29T17:24:44;102366.47;;;20.58;100.00
19236;BME280;9752;54.270;12.470;2023-05-29T17:29:46;102380.41;;;19.61;100.00
19236;BME280;9752;54.270;12.470;2023-05-29T17:34:47;102360.97;;;20.92;100.00
19236;BME280;9752;54.270;12.470;2023-05-29T17:39:53;102357.66;;;21.17;100.00
19236;BME280;9752;54.270;12.470;2023-05-29T17:44:55;102371.59;;;19.78;100.00
19236;BME280;9752;54.270;12.470;2023-05-29T17:49:57;102372.53;;;18.41;100.00
19236;BME280;9752;54.270;12.470;2023-05-29T17:55:00;102378.72;;;17.94;100.00
19236;BME280;9752;54.270;12.470;2023-05-29T18:00:02;102374.56;;;16.77;100.00
19236;BME280;9752;54.270;12.470;2023-05-29T18:05:12;102376.19;;;16.32;100.00
19236;BME280;9752;54.270;12.470;2023-05-29T18:10:15;102363.41;;;17.70;100.00
19236;BME280;9752;54.270;12.470;2023-05-29T18:15:21;102363.25;;;18.31;100.00
19236;BME280;9752;54.270;12.470;2023-05-29T18:20:23;102364.34;;;16.82;100.00
19236;BME280;9752;54.270;12.470;2023-05-29T18:25:30;102356.38;;;16.65;100.00
19236;BME280;9752;54.270;12.470;2023-05-29T18:30:33;102356.19;;;15.24;100.00
19236;BME280;9752;54.270;12.470;2023-05-29T18:35:36;102364.41;;;14.65;100.00
19236;BME280;9752;54.270;12.470;2023-05-29T18:40:39;102345.47;;;14.31;100.00
19236;BME280;9752;54.270;12.470;2023-05-29T18:45:42;102342.06;;;13.95;100.00
19236;BME280;9752;54.270;12.470;2023-05-29T18:50:44;102346.44;;;13.59;100.00
19236;BME280;9752;54.270;12.470;2023-05-29T18:55:47;102347.00;;;13.43;100.00
19236;BME280;9752;54.270;12.470;2023-05-29T19:00:49;102363.50;;;13.20;100.00
19236;BME280;9752;54.270;12.470;2023-05-29T19:05:51;102343.13;;;13.02;100.00
19236;BME280;9752;54.270;12.470;2023-05-29T19:10:54;102359.06;;;12.83;100.00
19236;BME280;9752;54.270;12.470;2023-05-29T19:15:56;102353.56;;;12.57;100.00
19236;BME280;9752;54.270;12.470;2023-05-29T19:20:57;102346.13;;;12.39;100.00
19236;BME280;9752;54.270;12.470;2023-05-29T19:26:00;102358.56;;;12.09;100.00
19236;BME280;9752;54.270;12.470;2023-05-29T19:31:02;102353.19;;;11.86;100.00
19236;BME280;9752;54.270;12.470;2023-05-29T19:36:04;102359.00;;;11.61;100.00
19236;BME280;9752;54.270;12.470;2023-05-29T19:41:08;102375.44;;;11.50;100.00
19236;BME280;9752;54.270;12.470;2023-05-29T19:46:10;102370.22;;;11.40;100.00
19236;BME280;9752;54.270;12.470;2023-05-29T19:51:11;102384.72;;;11.05;100.00
19236;BME280;9752;54.270;12.470;2023-05-29T19:56:14;102389.13;;;10.96;100.00
19236;BME280;9752;54.270;12.470;2023-05-29T20:01:16;102388.22;;;11.16;100.00
19236;BME280;9752;54.270;12.470;2023-05-29T20:06:18;102388.31;;;11.28;100.00
19236;BME280;9752;54.270;12.470;2023-05-29T20:11:21;102399.50;;;11.17;100.00
19236;BME280;9752;54.270;12.470;2023-05-29T20:16:23;102393.94;;;11.12;100.00
19236;BME280;9752;54.270;12.470;2023-05-29T20:21:25;102385.00;;;11.08;100.00
19236;BME280;9752;54.270;12.470;2023-05-29T20:26:28;102390.56;;;11.03;100.00
19236;BME280;9752;54.270;12.470;2023-05-29T20:31:32;102386.69;;;10.98;100.00
19236;BME280;9752;54.270;12.470;2023-05-29T20:36:34;102401.84;;;10.83;100.00
19236;BME280;9752;54.270;12.470;2023-05-29T20:41:38;102391.31;;;11.32;100.00
19236;BME280;9752;54.270;12.470;2023-05-29T20:46:39;102399.09;;;11.43;100.00
19236;BME280;9752;54.270;12.470;2023-05-29T20:51:42;102406.94;;;11.12;100.00
19236;BME280;9752;54.270;12.470;2023-05-29T20:56:45;102405.09;;;10.49;100.00
19236;BME280;9752;54.270;12.470;2023-05-29T21:01:47;102399.41;;;10.24;100.00
19236;BME280;9752;54.270;12.470;2023-05-29T21:06:49;102407.06;;;10.23;100.00
19236;BME280;9752;54.270;12.470;2023-05-29T21:11:52;102400.56;;;10.67;100.00
19236;BME280;9752;54.270;12.470;2023-05-29T21:16:55;102406.69;;;10.99;100.00
19236;BME280;9752;54.270;12.470;2023-05-29T21:21:57;102394.22;;;11.05;100.00
19236;BME280;9752;54.270;12.470;2023-05-29T21:27:00;102392.88;;;11.20;100.00
19236;BME280;9752;54.270;12.470;2023-05-29T21:32:03;102382.34;;;11.39;100.00
19236;BME280;9752;54.270;12.470;2023-05-29T21:37:05;102384.25;;;11.52;100.00
19236;BME280;9752;54.270;12.470;2023-05-29T21:42:09;102384.63;;;11.57;100.00
19236;BME280;9752;54.270;12.470;2023-05-29T21:47:11;102402.66;;;11.55;100.00
19236;BME280;9752;54.270;12.470;2023-05-29T21:52:13;102391.50;;;11.56;100.00
19236;BME280;9752;54.270;12.470;2023-05-29T21:57:16;102390.22;;;11.51;100.00
19236;BME280;9752;54.270;12.470;2023-05-29T22:02:18;102389.69;;;11.55;100.00
19236;BME280;9752;54.270;12.470;2023-05-29T22:07:20;102391.16;;;11.41;100.00
19236;BME280;9752;54.270;12.470;2023-05-29T22:12:24;102399.38;;;11.25;100.00
19236;BME280;9752;54.270;12.470;2023-05-29T22:17:26;102397.28;;;11.31;100.00
19236;BME280;9752;54.270;12.470;2023-05-29T22:22:28;102397.19;;;11.09;100.00
19236;BME280;9752;54.270;12.470;2023-05-29T22:27:34;102401.09;;;11.04;100.00
19236;BME280;9752;54.270;12.470;2023-05-29T22:32:37;102417.56;;;11.15;100.00
19236;BME280;9752;54.270;12.470;2023-05-29T22:37:41;102411.03;;;11.30;100.00
19236;BME280;9752;54.270;12.470;2023-05-29T22:42:44;102416.53;;;11.23;100.00
19236;BME280;9752;54.270;12.470;2023-05-29T22:47:47;102412.09;;;11.22;100.00
19236;BME280;9752;54.270;12.470;2023-05-29T22:52:49;102407.16;;;11.15;100.00
19236;BME280;9752;54.270;12.470;2023-05-29T22:57:52;102415.75;;;11.04;100.00
19236;BME280;9752;54.270;12.470;2023-05-29T23:02:54;102417.69;;;10.96;100.00
19236;BME280;9752;54.270;12.470;2023-05-29T23:07:55;102425.47;;;11.17;100.00
19236;BME280;9752;54.270;12.470;2023-05-29T23:12:58;102417.47;;;11.13;100.00
19236;BME280;9752;54.270;12.470;2023-05-29T23:18:00;102423.13;;;11.09;100.00
19236;BME280;9752;54.270;12.470;2023-05-29T23:23:02;102420.69;;;11.01;100.00
19236;BME280;9752;54.270;12.470;2023-05-29T23:28:05;102429.91;;;10.97;100.00
19236;BME280;9752;54.270;12.470;2023-05-29T23:33:07;102430.03;;;10.78;100.00
19236;BME280;9752;54.270;12.470;2023-05-29T23:38:09;102422.75;;;10.94;100.00
19236;BME280;9752;54.270;12.470;2023-05-29T23:43:14;102417.31;;;10.91;100.00
19236;BME280;9752;54.270;12.470;2023-05-29T23:48:15;102402.91;;;11.05;100.00
19236;BME280;9752;54.270;12.470;2023-05-29T23:53:17;102408.47;;;11.00;100.00
19236;BME280;9752;54.270;12.470;2023-05-29T23:58:20;102407.72;;;11.01;100.00
